Time;durP1;ratioP1;P1;durP2;ratioP2;P2;SDS_P1;SDS_P2;PMS_P1;PMS_P2;Temp;Humidity;BMP_temperature;BMP_pressure;BME280_temperature;BME280_humidity;BME280_pressure;Samples;Min_cycle;Max_cycle;Signal;HPM_P1;HPM_P2
2020/12/08 00:00:08;;;;;;;267.77;46.88;;;;;;;3.22;76.57;100139.41;6220831;23;20028;-78
2020/12/08 00:02:34;;;;;;;250.18;44.95;;;;;;;3.15;75.89;100132.63;6218151;23;20016;-79
2020/12/08 00:05:00;;;;;;;311.55;47.20;;;;;;;3.07;75.70;100124.94;6219101;23;20027;-79
2020/12/08 00:07:27;;;;;;;356.58;49.33;;;;;;;2.96;75.09;100130.47;6246886;23;20316;-79
2020/12/08 00:09:54;;;;;;;358.85;46.55;;;;;;;2.81;74.57;100123.88;6222114;23;20016;-79
2020/12/08 00:12:25;;;;;;;312.77;44.92;;;;;;;2.64;74.48;100131.28;6221924;23;20050;-78
2020/12/08 00:14:52;;;;;;;215.40;41.58;;;;;;;2.47;74.63;100124.69;6196327;23;20120;-79
2020/12/08 00:17:18;;;;;;;209.85;38.67;;;;;;;2.38;75.31;100135.34;6246888;23;20074;-78
2020/12/08 00:19:44;;;;;;;201.75;37.90;;;;;;;2.35;75.97;100135.41;6248450;23;20520;-79
2020/12/08 00:22:10;;;;;;;205.40;39.58;;;;;;;2.37;76.15;100144.06;6221187;23;20529;-78
2020/12/08 00:24:37;;;;;;;236.90;41.10;;;;;;;2.40;76.63;100144.00;6220342;23;20020;-79
2020/12/08 00:27:03;;;;;;;355.75;45.95;;;;;;;2.48;77.07;100142.06;6219716;23;20082;-79
2020/12/08 00:29:30;;;;;;;175.02;40.72;;;;;;;2.62;77.75;100149.59;6221621;23;20587;-78
2020/12/08 00:31:56;;;;;;;223.90;41.70;;;;;;;2.78;77.88;100144.84;6248176;23;20016;-79
2020/12/08 00:34:22;;;;;;;245.32;43.03;;;;;;;2.93;78.21;100149.69;6246385;23;20012;-79
2020/12/08 00:36:47;;;;;;;133.70;35.10;;;;;;;3.08;78.13;100150.22;6193586;23;20024;-79
2020/12/08 00:39:13;;;;;;;154.73;38.65;;;;;;;3.21;77.97;100149.00;6218300;23;20046;-78
2020/12/08 00:41:39;;;;;;;153.93;37.55;;;;;;;3.32;77.94;100146.13;6219844;23;20034;-79
2020/12/08 00:44:05;;;;;;;329.98;47.35;;;;;;;3.44;77.86;100139.69;6221287;23;20370;-79
2020/12/08 00:46:33;;;;;;;191.90;39.50;;;;;;;3.52;77.75;100148.19;6247274;23;20085;-79
2020/12/08 00:48:59;;;;;;;199.43;42.25;;;;;;;3.59;77.55;100144.50;6248671;23;20027;-79
2020/12/08 00:51:26;;;;;;;201.50;42.47;;;;;;;3.66;77.55;100146.06;6246433;23;20023;-78
2020/12/08 00:53:52;;;;;;;222.75;43.13;;;;;;;3.72;77.15;100155.50;6194511;23;20075;-79
2020/12/08 00:56:18;;;;;;;279.42;46.20;;;;;;;3.75;76.90;100154.53;6246115;23;20458;-79
2020/12/08 00:58:51;;;;;;;126.68;35.47;;;;;;;3.76;76.84;100151.03;6199540;23;20067;-79
2020/12/08 01:01:17;;;;;;;138.70;35.60;;;;;;;3.74;76.71;100158.09;6220553;23;20016;-79
2020/12/08 01:03:44;;;;;;;333.40;47.85;;;;;;;3.68;76.43;100153.88;6220475;23;20536;-79
2020/12/08 01:06:19;;;;;;;;;;;;;;;3.61;75.90;100158.41;6221442;23;20043;-79
2020/12/08 01:08:46;;;;;;;166.35;35.53;;;;;;;3.52;75.69;100153.41;6220008;23;19919;-79
2020/12/08 01:11:14;;;;;;;147.25;34.28;;;;;;;3.41;75.33;100155.47;6244820;23;20026;-79
2020/12/08 01:13:40;;;;;;;151.20;35.75;;;;;;;3.29;75.22;100156.66;6221165;23;20096;-79
2020/12/08 01:16:14;;;;;;;139.65;34.33;;;;;;;3.15;75.24;100151.78;6219278;23;20139;-79
2020/12/08 01:18:40;;;;;;;160.63;36.38;;;;;;;3.04;75.02;100151.22;6220441;23;20030;-78
2020/12/08 01:21:08;;;;;;;173.90;37.63;;;;;;;2.91;74.94;100151.50;6220025;23;20027;-79
2020/12/08 01:23:35;;;;;;;150.07;35.33;;;;;;;2.76;74.66;100151.88;6221588;23;20030;-79
2020/12/08 01:26:05;;;;;;;153.07;35.67;;;;;;;2.65;75.25;100143.44;6222806;23;20020;-78
2020/12/08 01:28:31;;;;;;;166.35;35.70;;;;;;;2.56;74.91;100146.25;6196694;23;20082;-79
2020/12/08 01:30:58;;;;;;;175.48;35.58;;;;;;;2.43;74.51;100149.19;6202269;23;20024;-79
2020/12/08 01:33:25;;;;;;;157.52;36.25;;;;;;;2.30;74.39;100148.59;6203875;23;20043;-79
2020/12/08 01:35:52;;;;;;;161.73;35.00;;;;;;;2.20;74.79;100156.66;6226056;23;20031;-80
2020/12/08 01:38:18;;;;;;;148.43;32.28;;;;;;;2.09;74.66;100151.66;6202249;23;20047;-79
2020/12/08 01:40:52;;;;;;;148.43;33.70;;;;;;;2.00;74.88;100152.72;6228003;23;20043;-79
2020/12/08 01:43:21;;;;;;;154.10;33.60;;;;;;;1.94;74.96;100147.59;6228931;23;20063;-80
2020/12/08 01:45:48;;;;;;;163.13;33.45;;;;;;;1.91;75.19;100150.31;6207279;23;20032;-79
2020/12/08 01:48:17;;;;;;;150.27;32.15;;;;;;;1.87;75.08;100146.03;6221672;23;20027;-79
2020/12/08 01:50:44;;;;;;;140.85;31.30;;;;;;;1.80;75.14;100142.69;6222461;23;20020;-80
2020/12/08 01:53:10;;;;;;;123.65;30.40;;;;;;;1.77;75.11;100147.09;6224952;23;20066;-79
2020/12/08 01:55:38;;;;;;;131.60;30.88;;;;;;;1.72;75.33;100153.28;6222576;23;20020;-80
2020/12/08 01:58:20;;;;;;;166.43;32.60;;;;;;;1.68;75.26;100154.25;6198288;23;20028;-80
2020/12/08 02:00:51;;;;;;;179.73;32.88;;;;;;;1.64;75.00;100149.97;6201353;23;20024;-79
2020/12/08 02:03:19;;;;;;;157.57;32.22;;;;;;;1.61;75.15;100150.03;6222724;23;20020;-81
2020/12/08 02:05:47;;;;;;;149.85;32.85;;;;;;;1.59;75.33;100154.41;6224581;23;20123;-81
2020/12/08 02:08:13;;;;;;;182.70;33.65;;;;;;;1.58;75.59;100152.69;6227823;23;20465;-80
2020/12/08 02:10:41;;;;;;;155.15;33.85;;;;;;;1.55;75.24;100155.38;6229023;23;20107;-80
2020/12/08 02:13:10;;;;;;;148.77;31.75;;;;;;;1.51;75.58;100154.56;6227561;23;20066;-80
2020/12/08 02:15:40;;;;;;;162.63;34.30;;;;;;;1.51;76.24;100156.31;6209318;23;20032;-78
2020/12/08 02:18:06;;;;;;;179.40;35.55;;;;;;;1.52;76.23;100155.41;6229824;23;20024;-79
2020/12/08 02:20:34;;;;;;;141.98;34.45;;;;;;;1.54;76.71;100158.84;6249914;23;20027;-77
2020/12/08 02:23:02;;;;;;;143.40;33.90;;;;;;;1.60;77.61;100169.19;6224656;23;20012;-78
2020/12/08 02:25:33;;;;;;;162.25;35.30;;;;;;;1.72;78.20;100162.88;6222008;23;20024;-80
2020/12/08 02:28:03;;;;;;;117.25;31.27;;;;;;;1.87;78.38;100172.16;6218306;23;20020;-78
2020/12/08 02:30:29;;;;;;;215.85;38.90;;;;;;;1.99;78.30;100164.03;6221869;23;20023;-80
2020/12/08 02:32:55;;;;;;;136.30;33.35;;;;;;;2.08;77.79;100169.09;6225625;23;20111;-81
2020/12/08 02:35:21;;;;;;;132.00;33.30;;;;;;;2.16;77.33;100165.44;6229182;23;20031;-80
2020/12/08 02:37:49;;;;;;;113.85;31.70;;;;;;;2.21;77.43;100171.44;6225392;23;20020;-81
2020/12/08 02:40:18;;;;;;;163.52;36.55;;;;;;;2.24;77.45;100168.75;6255247;23;20091;-80
2020/12/08 02:42:45;;;;;;;151.98;35.17;;;;;;;2.26;77.19;100173.06;6228220;23;20016;-81
2020/12/08 02:45:13;;;;;;;122.88;32.35;;;;;;;2.28;76.81;100170.41;6227113;23;20092;-80
2020/12/08 02:47:39;;;;;;;134.10;35.75;;;;;;;2.28;76.69;100175.63;6201630;23;20030;-81
2020/12/08 02:50:05;;;;;;;156.93;38.72;;;;;;;2.27;76.83;100185.22;6228334;23;20031;-81
2020/12/08 02:52:33;;;;;;;163.68;38.33;;;;;;;2.26;76.46;100178.28;6225961;23;20020;-80
2020/12/08 02:55:00;;;;;;;179.95;38.63;;;;;;;2.23;76.21;100172.28;6203640;23;20016;-80
2020/12/08 02:57:32;;;;;;;172.18;38.63;;;;;;;2.17;76.54;100168.03;6205555;23;20020;-81
2020/12/08 02:59:59;;;;;;;146.50;37.35;;;;;;;2.17;76.56;100172.38;6204728;23;20020;-80
2020/12/08 03:02:29;;;;;;;175.23;38.05;;;;;;;2.16;76.89;100166.31;6231817;23;20414;-79
2020/12/08 03:04:55;;;;;;;132.75;33.92;;;;;;;2.21;77.18;100168.84;6231254;23;20439;-78
2020/12/08 03:07:23;;;;;;;138.15;35.53;;;;;;;2.27;76.99;100173.91;6224087;23;20078;-78
2020/12/08 03:09:50;;;;;;;168.63;39.17;;;;;;;2.33;77.35;100179.00;6199323;23;20076;-78
2020/12/08 03:12:16;;;;;;;152.68;37.67;;;;;;;2.40;77.22;100169.28;6198295;23;20016;-78
2020/12/08 03:14:46;;;;;;;154.68;37.00;;;;;;;2.45;76.99;100165.69;6199196;23;20478;-78
2020/12/08 03:17:20;;;;;;;133.02;33.67;;;;;;;2.51;77.51;100173.38;6222444;23;20430;-78
2020/12/08 03:19:49;;;;;;;184.98;37.40;;;;;;;2.58;77.45;100162.75;6219160;23;20111;-80
2020/12/08 03:22:16;;;;;;;181.40;38.40;;;;;;;2.64;77.08;100167.88;6197047;23;20071;-78
2020/12/08 03:24:49;;;;;;;154.77;34.78;;;;;;;2.68;77.29;100172.13;6199473;23;20023;-78
2020/12/08 03:27:17;;;;;;;142.77;35.30;;;;;;;2.72;77.46;100171.16;6197174;23;20027;-78
2020/12/08 03:29:46;;;;;;;162.55;35.70;;;;;;;2.76;77.07;100170.19;6222766;23;20024;-78
2020/12/08 03:32:15;;;;;;;132.95;31.70;;;;;;;2.81;77.03;100178.78;6221377;23;20512;-78
2020/12/08 03:34:41;;;;;;;129.63;34.10;;;;;;;2.86;76.92;100174.31;6222220;23;20472;-78
2020/12/08 03:37:07;;;;;;;118.38;31.63;;;;;;;2.90;77.15;100170.72;6220864;23;20050;-78
2020/12/08 03:39:33;;;;;;;129.93;31.50;;;;;;;2.97;76.82;100167.94;6221325;23;20031;-79
2020/12/08 03:42:03;;;;;;;144.38;33.30;;;;;;;3.02;76.91;100173.94;6219354;23;20060;-79
2020/12/08 03:44:34;;;;;;;122.13;32.10;;;;;;;3.06;76.60;100170.34;6196943;23;20016;-78
2020/12/08 03:47:08;;;;;;;225.98;38.95;;;;;;;3.09;76.24;100175.50;6220574;23;20418;-79
2020/12/08 03:49:36;;;;;;;121.85;32.40;;;;;;;3.13;76.46;100166.69;6195520;23;20409;-77
2020/12/08 03:52:04;;;;;;;144.10;33.30;;;;;;;3.15;76.76;100175.34;6196959;23;20062;-78
2020/12/08 03:54:30;;;;;;;282.15;43.08;;;;;;;3.19;76.53;100171.75;6223301;23;20055;-79
2020/12/08 03:56:59;;;;;;;138.77;36.40;;;;;;;3.23;76.92;100177.75;6218455;22;20020;-77
2020/12/08 03:59:28;;;;;;;150.57;36.90;;;;;;;3.25;76.56;100174.19;6193561;23;20027;-77
2020/12/08 04:02:02;;;;;;;203.52;38.63;;;;;;;3.28;76.75;100176.75;6194457;23;20016;-78
2020/12/08 04:04:29;;;;;;;140.90;36.83;;;;;;;3.30;76.68;100177.56;6219424;23;20578;-77
2020/12/08 04:06:55;;;;;;;206.52;37.50;;;;;;;3.34;76.62;100174.88;6217895;23;20020;-79
2020/12/08 04:09:21;;;;;;;128.07;33.63;;;;;;;3.37;76.88;100177.38;6245323;23;20024;-76
2020/12/08 04:11:48;;;;;;;192.93;38.70;;;;;;;3.40;76.56;100174.72;6218493;23;20016;-77
2020/12/08 04:14:16;;;;;;;280.00;43.00;;;;;;;3.43;76.85;100183.34;6218771;23;20020;-77
2020/12/08 04:16:46;;;;;;;257.50;41.47;;;;;;;3.48;76.80;100188.44;6217969;23;20110;-77
2020/12/08 04:19:16;;;;;;;179.82;37.15;;;;;;;3.49;76.79;100184.94;6193800;23;20039;-77
2020/12/08 04:21:44;;;;;;;173.48;35.90;;;;;;;3.51;76.95;100183.13;6192824;23;20099;-77
2020/12/08 04:24:16;;;;;;;183.05;37.28;;;;;;;3.52;76.50;100176.97;6218270;23;20023;-77
2020/12/08 04:26:45;;;;;;;258.60;41.25;;;;;;;3.53;76.53;100181.34;6217785;23;20020;-76
2020/12/08 04:29:17;;;;;;;154.07;35.93;;;;;;;3.55;76.60;100184.75;6218206;23;20521;-77
2020/12/08 04:31:50;;;;;;;148.65;34.60;;;;;;;3.56;76.46;100175.13;6193830;23;20016;-77
2020/12/08 04:34:16;;;;;;;157.43;35.05;;;;;;;3.58;76.81;100178.56;6244511;23;20016;-77
2020/12/08 04:36:47;;;;;;;155.77;36.53;;;;;;;3.60;76.67;100179.38;6228712;23;20006;-77
2020/12/08 04:39:13;;;;;;;166.25;36.45;;;;;;;3.60;76.88;100177.66;6225349;23;20073;-77
2020/12/08 04:41:39;;;;;;;140.07;34.60;;;;;;;3.63;76.64;100182.78;6244308;23;20454;-77
2020/12/08 04:44:05;;;;;;;175.15;38.45;;;;;;;3.64;76.94;100179.28;6244757;23;20027;-77
2020/12/08 04:46:31;;;;;;;190.57;39.05;;;;;;;3.67;76.69;100183.56;6217477;23;20020;-77
2020/12/08 04:48:58;;;;;;;137.70;36.80;;;;;;;3.69;76.91;100187.00;6244262;23;20421;-77
2020/12/08 04:51:24;;;;;;;158.45;36.50;;;;;;;3.70;76.64;100184.34;6217487;23;20106;-77
2020/12/08 04:53:54;;;;;;;167.35;38.97;;;;;;;3.73;76.79;100187.78;6244353;23;20024;-77
2020/12/08 04:56:20;;;;;;;170.20;38.70;;;;;;;3.74;76.58;100184.28;6244046;23;20024;-77
2020/12/08 04:58:46;;;;;;;216.10;42.15;;;;;;;3.75;76.56;100183.34;6244158;23;20024;-77
2020/12/08 05:01:27;;;;;;;146.80;34.47;;;;;;;3.75;76.65;100180.72;6243856;23;20020;-77
2020/12/08 05:03:58;;;;;;;159.95;39.75;;;;;;;3.77;76.79;100173.69;6217803;23;20361;-77
2020/12/08 05:06:25;;;;;;;130.63;35.20;;;;;;;3.79;77.04;100177.16;6217245;23;20020;-77
2020/12/08 05:09:05;;;;;;;126.28;36.33;;;;;;;3.80;77.19;100178.84;6217810;23;20020;-77
2020/12/08 05:11:32;;;;;;;165.23;38.80;;;;;;;3.84;76.99;100180.47;6244062;23;20392;-77
2020/12/08 05:14:02;;;;;;;228.77;39.97;;;;;;;3.86;76.75;100178.66;6244103;23;20027;-77
2020/12/08 05:16:28;;;;;;;181.55;38.38;;;;;;;3.86;76.66;100178.66;6243744;23;20044;-77
2020/12/08 05:19:13;;;;;;;267.35;43.83;;;;;;;3.83;76.50;100184.88;6217681;23;20023;-77
2020/12/08 05:22:09;;;;;;;193.65;40.42;;;;;;;3.83;76.55;100178.78;6217090;23;20016;-77
2020/12/08 05:24:35;;;;;;;165.18;38.70;;;;;;;3.84;76.49;100185.72;6241863;23;20024;-77
2020/12/08 05:27:05;;;;;;;240.23;42.85;;;;;;;3.84;76.80;100185.72;6192295;23;20111;-77
2020/12/08 05:29:33;;;;;;;212.13;41.78;;;;;;;3.83;76.54;100192.72;6217803;23;20442;-78
2020/12/08 05:32:36;;;;;;;221.02;42.22;;;;;;;3.83;76.67;100194.50;6243970;23;20012;-77
2020/12/08 05:35:07;;;;;;;190.10;38.10;;;;;;;3.81;76.62;100191.06;6097376;23;20018;-76
2020/12/08 05:37:36;;;;;;;199.35;39.83;;;;;;;3.79;76.48;100192.88;6199009;23;20024;-77
2020/12/08 05:40:10;;;;;;;312.80;44.72;;;;;;;3.77;76.55;100189.41;6217841;23;20100;-77
2020/12/08 05:42:41;;;;;;;326.52;46.03;;;;;;;3.77;76.75;100194.66;6249095;23;20013;-78
2020/12/08 05:45:10;;;;;;;269.50;44.20;;;;;;;3.76;76.70;100196.41;6218063;23;20046;-77
2020/12/08 05:47:57;;;;;;;186.07;38.90;;;;;;;3.78;76.71;100201.63;6246908;23;20019;-78
2020/12/08 05:50:25;;;;;;;204.70;39.50;;;;;;;3.78;76.53;100191.13;6223472;23;20446;-78
2020/12/08 05:52:53;;;;;;;188.98;40.75;;;;;;;3.79;76.70;100200.72;6249435;23;20013;-78
2020/12/08 05:55:21;;;;;;;235.25;43.33;;;;;;;3.79;76.34;100198.97;6217983;23;20332;-78
2020/12/08 05:57:49;;;;;;;149.65;37.17;;;;;;;3.81;76.94;100202.38;6243922;23;20024;-78
2020/12/08 06:00:23;;;;;;;220.68;42.80;;;;;;;3.83;76.67;100210.22;6217786;23;20517;-78
2020/12/08 06:02:49;;;;;;;152.95;37.38;;;;;;;3.85;76.92;100211.03;6217161;23;20012;-78
2020/12/08 06:05:29;;;;;;;229.68;44.40;;;;;;;3.87;77.10;100211.84;6244421;23;20027;-78
2020/12/08 06:07:56;;;;;;;132.68;35.30;;;;;;;3.90;76.82;100217.00;6243709;23;20020;-78
2020/12/08 06:10:23;;;;;;;146.23;35.28;;;;;;;3.90;77.01;100217.84;6193472;23;20020;-78
2020/12/08 06:13:00;;;;;;;243.65;45.55;;;;;;;3.93;77.09;100227.38;6253588;23;20013;-78
2020/12/08 06:15:40;;;;;;;157.23;37.42;;;;;;;3.96;76.88;100226.47;6218421;23;20020;-78
2020/12/08 06:18:09;;;;;;;178.15;41.55;;;;;;;3.98;77.11;100228.13;6243657;23;20020;-78
2020/12/08 06:20:36;;;;;;;147.95;36.13;;;;;;;4.01;76.98;100235.91;6217166;23;20489;-78
2020/12/08 06:23:02;;;;;;;176.00;38.97;;;;;;;4.03;77.24;100234.09;6217500;23;20103;-78
2020/12/08 06:25:28;;;;;;;246.90;45.05;;;;;;;4.06;76.99;100234.00;6244448;23;20020;-77
2020/12/08 06:28:03;;;;;;;150.30;37.88;;;;;;;4.06;77.05;100239.22;6217218;23;20484;-78
2020/12/08 06:30:30;;;;;;;205.05;42.78;;;;;;;4.07;77.07;100240.97;6217170;23;20016;-77
2020/12/08 06:33:00;;;;;;;197.90;41.97;;;;;;;4.08;77.00;100237.44;6243559;23;20016;-78
2020/12/08 06:35:31;;;;;;;192.13;40.67;;;;;;;4.08;77.01;100237.44;6243863;23;20091;-77
2020/12/08 06:38:14;;;;;;;162.85;37.53;;;;;;;4.08;76.74;100242.66;6244066;23;20016;-78
2020/12/08 06:40:52;;;;;;;179.65;39.85;;;;;;;4.07;76.80;100248.81;6217040;23;20020;-77
2020/12/08 06:43:19;;;;;;;185.82;41.22;;;;;;;4.08;77.00;100253.16;6216800;23;20022;-77
2020/12/08 06:45:45;;;;;;;153.38;36.20;;;;;;;4.08;76.96;100247.91;6216761;23;20078;-77
2020/12/08 06:48:17;;;;;;;120.65;32.85;;;;;;;4.10;76.87;100251.34;6217011;23;20067;-78
2020/12/08 06:50:43;;;;;;;156.77;38.65;;;;;;;4.14;76.83;100246.03;6243701;23;20020;-77
2020/12/08 06:53:09;;;;;;;207.43;43.83;;;;;;;4.16;77.11;100249.47;6217234;23;20381;-77
2020/12/08 06:55:44;;;;;;;192.00;42.45;;;;;;;4.19;77.48;100246.75;6245853;23;20062;-78
2020/12/08 06:58:10;;;;;;;208.05;42.78;;;;;;;4.21;77.13;100247.56;6245530;23;20020;-77
2020/12/08 07:00:36;;;;;;;211.75;42.80;;;;;;;4.21;76.58;100242.34;6219045;23;20070;-77
2020/12/08 07:03:03;;;;;;;280.52;46.88;;;;;;;4.21;76.83;100243.19;6244952;23;20318;-76
2020/12/08 07:05:31;;;;;;;221.60;44.72;;;;;;;4.22;76.76;100250.16;6193954;23;20032;-77
2020/12/08 07:07:59;;;;;;;216.85;44.80;;;;;;;4.23;76.80;100253.63;6244997;23;20276;-77
2020/12/08 07:10:25;;;;;;;258.77;46.08;;;;;;;4.23;76.61;100254.47;6218455;23;20024;-77
2020/12/08 07:12:53;;;;;;;210.57;44.55;;;;;;;4.22;76.57;100254.53;6244597;23;20020;-77
2020/12/08 07:15:23;;;;;;;179.20;42.60;;;;;;;4.22;76.68;100259.75;6218208;23;20327;-77
2020/12/08 07:17:54;;;;;;;208.95;45.97;;;;;;;4.23;76.85;100266.75;6218856;23;20016;-77
2020/12/08 07:20:20;;;;;;;163.23;39.40;;;;;;;4.25;76.94;100270.16;6245300;23;20044;-77
2020/12/08 07:22:47;;;;;;;300.52;49.90;;;;;;;4.27;76.74;100268.38;6245310;23;20012;-77
2020/12/08 07:25:15;;;;;;;169.88;42.08;;;;;;;4.29;76.76;100271.78;6245240;23;20048;-77
2020/12/08 07:27:44;;;;;;;178.65;44.63;;;;;;;4.31;76.80;100275.22;6218341;23;20408;-77
2020/12/08 07:30:11;;;;;;;181.77;45.05;;;;;;;4.34;77.05;100285.66;6218440;23;20016;-77
2020/12/08 07:32:37;;;;;;;232.57;49.00;;;;;;;4.37;77.20;100285.56;6218251;23;20023;-77
2020/12/08 07:35:04;;;;;;;235.23;50.45;;;;;;;4.39;76.89;100283.75;6244637;23;20013;-77
2020/12/08 07:37:37;;;;;;;231.13;50.38;;;;;;;4.39;76.73;100283.75;6243650;23;20024;-77
2020/12/08 07:40:09;;;;;;;159.57;42.53;;;;;;;4.41;76.80;100281.09;6244429;23;20024;-77
2020/12/08 07:42:45;;;;;;;330.80;55.58;;;;;;;4.42;77.02;100288.88;6216881;23;20016;-77
2020/12/08 07:45:11;;;;;;;201.40;48.25;;;;;;;4.43;76.86;100290.63;6218212;23;20082;-77
2020/12/08 07:47:37;;;;;;;309.52;55.10;;;;;;;4.46;76.86;100290.56;6266682;23;20023;-77
2020/12/08 07:50:04;;;;;;;186.90;46.53;;;;;;;4.47;76.90;100294.88;6245745;23;20022;-77
2020/12/08 07:52:30;;;;;;;168.30;45.42;;;;;;;4.47;76.85;100297.50;6244941;23;20023;-77
2020/12/08 07:54:56;;;;;;;211.80;48.50;;;;;;;4.51;76.58;100302.66;6218591;23;20098;-77
2020/12/08 07:57:22;;;;;;;192.48;48.15;;;;;;;4.52;76.57;100299.13;6217451;23;20099;-78
2020/12/08 07:59:48;;;;;;;175.27;46.75;;;;;;;4.54;76.65;100313.03;6218323;23;20480;-77
2020/12/08 08:02:14;;;;;;;291.77;56.80;;;;;;;4.56;76.50;100301.63;6244440;23;20022;-77
2020/12/08 08:04:40;;;;;;;244.75;53.80;;;;;;;4.57;76.75;100307.72;6192588;23;20020;-77
2020/12/08 08:07:06;;;;;;;180.00;46.83;;;;;;;4.58;76.68;100304.22;6217811;23;20031;-79
2020/12/08 08:09:32;;;;;;;157.43;42.20;;;;;;;4.60;76.85;100307.66;6245379;23;20020;-78
2020/12/08 08:12:00;;;;;;;157.20;43.95;;;;;;;4.62;76.60;100305.84;6217448;23;20024;-78
2020/12/08 08:14:27;;;;;;;234.52;51.85;;;;;;;4.62;76.78;100305.84;6218327;23;20016;-78
2020/12/08 08:17:04;;;;;;;362.23;60.42;;;;;;;4.63;76.51;100307.53;6219856;23;20087;-78
2020/12/08 08:19:30;;;;;;;165.07;45.63;;;;;;;4.65;76.75;100313.59;6244232;23;20409;-78
2020/12/08 08:21:57;;;;;;;298.55;56.70;;;;;;;4.68;76.54;100300.41;6218257;23;20016;-78
2020/12/08 08:24:23;;;;;;;144.50;44.78;;;;;;;4.69;76.35;100307.38;6244694;23;20019;-78
2020/12/08 08:26:49;;;;;;;211.23;50.33;;;;;;;4.71;76.90;100310.81;6244092;23;20016;-77
2020/12/08 08:29:15;;;;;;;246.13;55.38;;;;;;;4.74;76.76;100309.84;6217595;23;20026;-78
2020/12/08 08:31:41;;;;;;;328.45;61.50;;;;;;;4.76;76.72;100324.63;6217167;23;20024;-77
2020/12/08 08:34:07;;;;;;;280.27;56.35;;;;;;;4.79;76.79;100307.97;6193402;23;20475;-77
2020/12/08 08:36:33;;;;;;;180.05;48.75;;;;;;;4.82;76.80;100311.34;6244832;23;20016;-77
2020/12/08 08:38:59;;;;;;;149.82;45.42;;;;;;;4.87;76.59;100301.56;6217485;23;20031;-77
2020/12/08 08:41:25;;;;;;;200.75;51.25;;;;;;;4.94;76.62;100306.66;6217880;23;20386;-77
2020/12/08 08:43:51;;;;;;;162.32;45.17;;;;;;;4.99;76.53;100309.97;6218221;23;20036;-77
2020/12/08 08:46:17;;;;;;;240.98;54.08;;;;;;;5.05;76.67;100309.78;6242613;23;20048;-77
2020/12/08 08:48:43;;;;;;;266.08;55.03;;;;;;;5.10;76.40;100307.88;6217094;23;20476;-78
2020/12/08 08:51:10;;;;;;;227.77;54.97;;;;;;;5.17;76.68;100313.81;6217407;23;20024;-77
2020/12/08 08:53:37;;;;;;;188.45;48.67;;;;;;;5.21;76.34;100316.25;6216887;23;20022;-77
2020/12/08 08:56:03;;;;;;;186.95;49.83;;;;;;;5.28;76.38;100316.09;6243021;23;20042;-78
2020/12/08 08:58:29;;;;;;;270.60;55.63;;;;;;;5.34;76.46;100310.63;6219086;23;20064;-77
2020/12/08 09:00:57;;;;;;;199.55;48.80;;;;;;;5.43;76.30;100310.34;6243450;23;20024;-78
2020/12/08 09:03:23;;;;;;;263.25;57.47;;;;;;;5.53;76.30;100314.38;6242875;23;20012;-78
2020/12/08 09:05:49;;;;;;;208.50;55.03;;;;;;;5.62;76.28;100316.69;6217693;23;20093;-78
2020/12/08 09:08:15;;;;;;;178.25;49.78;;;;;;;5.73;76.20;100323.38;6217902;23;20027;-78
2020/12/08 09:10:41;;;;;;;199.77;52.95;;;;;;;5.81;76.35;100321.34;6244133;23;20070;-77
2020/12/08 09:13:07;;;;;;;226.18;57.75;;;;;;;5.90;76.34;100322.81;6217963;23;20066;-77
2020/12/08 09:15:33;;;;;;;241.55;57.25;;;;;;;5.97;76.14;100314.69;6216957;23;20048;-78
2020/12/08 09:18:03;;;;;;;189.32;51.92;;;;;;;6.04;75.50;100316.19;6217439;23;20016;-78
2020/12/08 09:20:29;;;;;;;186.82;51.95;;;;;;;6.11;75.78;100324.72;6216848;23;20098;-77
2020/12/08 09:22:55;;;;;;;239.38;56.85;;;;;;;6.16;75.93;100332.44;6250665;23;20144;-77
2020/12/08 09:25:24;;;;;;;240.52;59.03;;;;;;;6.23;75.82;100333.94;6259607;23;20020;-78
2020/12/08 09:27:50;;;;;;;227.25;56.55;;;;;;;6.29;75.56;100331.13;6215917;23;20018;-78
2020/12/08 09:30:16;;;;;;;124.70;40.03;;;;;;;6.33;75.38;100339.72;6217225;23;20028;-78
2020/12/08 09:32:42;;;;;;;135.45;43.75;;;;;;;6.36;75.50;100348.38;6244396;23;20016;-78
2020/12/08 09:35:08;;;;;;;206.13;55.45;;;;;;;6.39;75.28;100340.38;6217875;23;20020;-77
2020/12/08 09:37:34;;;;;;;137.40;44.67;;;;;;;6.42;75.43;100342.03;6243836;23;20016;-77
2020/12/08 09:40:00;;;;;;;148.80;48.42;;;;;;;6.47;75.12;100352.41;6217843;23;20019;-77
2020/12/08 09:42:26;;;;;;;173.10;50.72;;;;;;;6.53;75.69;100346.91;6217407;23;20020;-77
2020/12/08 09:44:52;;;;;;;160.95;50.25;;;;;;;6.61;75.23;100350.09;6244333;23;20012;-77
2020/12/08 09:47:19;;;;;;;196.88;53.97;;;;;;;6.67;75.13;100342.00;6244080;23;20016;-77
2020/12/08 09:49:46;;;;;;;173.40;51.78;;;;;;;6.76;75.07;100349.56;6216950;23;20071;-77
2020/12/08 09:52:13;;;;;;;178.95;52.13;;;;;;;6.82;75.08;100344.06;6217091;23;20025;-77
2020/12/08 09:54:39;;;;;;;144.63;42.67;;;;;;;6.92;75.25;100343.72;6244177;23;20020;-78
2020/12/08 09:57:05;;;;;;;170.80;52.60;;;;;;;7.15;75.16;100341.03;6241817;23;20374;-78
2020/12/08 09:59:32;;;;;;;120.70;42.70;;;;;;;7.41;74.49;100342.66;6242342;22;20015;-78
2020/12/08 10:02:02;;;;;;;159.80;52.67;;;;;;;7.77;74.47;100341.22;6217803;23;20016;-78
2020/12/08 10:04:28;;;;;;;137.40;48.63;;;;;;;8.22;74.07;100337.56;6218904;23;20020;-78
2020/12/08 10:06:54;;;;;;;109.72;41.70;;;;;;;8.69;73.42;100345.19;6218269;23;20020;-78
2020/12/08 10:09:20;;;;;;;107.72;43.00;;;;;;;9.01;72.75;100329.63;6219466;23;20106;-79
2020/12/08 10:11:46;;;;;;;93.95;39.58;;;;;;;9.30;72.40;100335.31;6219254;23;20107;-78
2020/12/08 10:14:12;;;;;;;94.38;39.40;;;;;;;9.49;71.82;100336.16;6244596;23;20020;-79
2020/12/08 10:16:38;;;;;;;90.97;36.85;;;;;;;9.53;72.03;100332.44;6246459;23;20051;-79
2020/12/08 10:19:05;;;;;;;83.00;35.95;;;;;;;9.87;71.73;100338.69;6219663;23;20020;-80
2020/12/08 10:21:31;;;;;;;82.55;36.20;;;;;;;9.96;71.31;100339.16;6249468;23;20020;-79
2020/12/08 10:23:57;;;;;;;84.75;35.65;;;;;;;9.96;70.94;100329.41;6219230;23;20097;-78
2020/12/08 10:26:23;;;;;;;72.78;32.55;;;;;;;9.89;70.95;100334.19;6219805;23;20020;-80
2020/12/08 10:28:49;;;;;;;80.70;34.40;;;;;;;9.85;71.00;100335.28;6220744;23;20409;-78
2020/12/08 10:31:17;;;;;;;77.13;33.25;;;;;;;9.67;70.67;100321.16;6220605;23;20020;-79
2020/12/08 10:33:43;;;;;;;68.70;31.27;;;;;;;9.45;70.64;100329.28;6196747;23;20023;-79
2020/12/08 10:36:10;;;;;;;72.82;31.85;;;;;;;9.29;70.71;100333.63;6247563;23;20101;-78
2020/12/08 10:38:37;;;;;;;63.92;31.10;;;;;;;9.15;70.99;100332.50;6246952;23;20090;-79
2020/12/08 10:41:04;;;;;;;67.93;30.15;;;;;;;9.15;71.13;100337.78;6247423;23;20043;-79
2020/12/08 10:43:30;;;;;;;63.67;29.67;;;;;;;9.33;71.91;100340.47;6247333;23;20020;-79
2020/12/08 10:46:06;;;;;;;89.30;36.65;;;;;;;9.57;72.09;100332.25;6247603;23;20027;-80
2020/12/08 10:48:32;;;;;;;56.03;27.65;;;;;;;9.51;71.64;100336.06;6221125;23;20016;-79
2020/12/08 10:50:59;;;;;;;65.80;31.13;;;;;;;9.46;71.52;100331.00;6219277;23;20024;-79
2020/12/08 10:53:25;;;;;;;63.05;30.73;;;;;;;9.52;71.81;100336.00;6220078;23;20020;-80
2020/12/08 10:55:51;;;;;;;68.75;31.38;;;;;;;9.65;71.26;100338.06;6245062;23;20070;-79
2020/12/08 10:58:18;;;;;;;59.03;30.33;;;;;;;9.76;71.55;100341.03;6245376;23;20062;-79
2020/12/08 11:00:44;;;;;;;58.35;29.55;;;;;;;9.92;71.59;100341.09;6247162;23;20016;-79
2020/12/08 11:03:10;;;;;;;62.38;29.83;;;;;;;10.18;71.80;100339.78;6196121;23;20425;-79
2020/12/08 11:05:36;;;;;;;51.33;26.92;;;;;;;10.50;71.19;100334.63;6222750;23;20024;-79
2020/12/08 11:08:02;;;;;;;49.20;25.77;;;;;;;10.82;71.09;100343.47;6229661;23;20095;-79
2020/12/08 11:10:28;;;;;;;49.78;26.60;;;;;;;11.03;70.48;100338.81;6248243;23;20020;-79
2020/12/08 11:12:54;;;;;;;62.95;31.17;;;;;;;10.99;70.53;100331.97;6223944;23;20016;-80